Star Vega — 3EVB3 — position and weather

sailwx.info

Track history (hours):
 
Tides and Currents Weather Stations Pressure Air Temp Water Temp Dewpoint Dewpoint Depression Visibility Wind Speed Wind Dir Waves Ship Positions

Star Vega

Last reported at 2015-Feb-21 05:11 UTC. Time now 2015-Feb-26 23:19 UTC.
Position N 46°16' E 030°44'.

Length 189 m; draft 6.3 m.

Type: Cargo ship. MMSI: 354143000.

Date/timePositionNaut miles runAvg speedWind from/ knotsBaromVisibWave heightAir tempDewpointWater temp
2015-Feb-21 05:11N 46°16' E 030°44'11 6.5
2015-Feb-21 03:28N 46°14' E 031°00'30510.5
2015-Feb-19 22:33N 41°20' E 029°13'22 9.3
2015-Feb-19 20:13N 41°00' E 028°60'5 6.7
2015-Feb-19 19:32N 40°56' E 028°59'9 9.4
2015-Feb-19 18:32N 40°47' E 029°03'6 6.3
2015-Feb-19 17:33N 40°42' E 028°58'1110.7
2015-Feb-19 16:29N 40°42' E 028°43'14 2.6
2015-Feb-19 11:05N 40°41' E 028°25'4 2.8
2015-Feb-19 09:33N 40°44' E 028°28'10 9.9
2015-Feb-19 08:32N 40°39' E 028°39'6 6.3
2015-Feb-19 07:33N 40°34' E 028°45'4 3.5
2015-Feb-19 06:32N 40°37' E 028°43'3 3.1
2015-Feb-19 05:28N 40°35' E 028°40'5 1.6
2015-Feb-19 02:18N 40°31' E 028°38'3 3.3
2015-Feb-19 01:30N 40°33' E 028°39'3 3.5
2015-Feb-19 00:31N 40°36' E 028°40'4 3.7
2015-Feb-18 23:33N 40°40' E 028°43'4 3.5
2015-Feb-18 22:32N 40°43' E 028°45'3 3.3
2015-Feb-18 21:33N 40°45' E 028°47'4 3.5
2015-Feb-18 20:32N 40°48' E 028°50'4 4.3
2015-Feb-18 19:32N 40°51' E 028°55'6 5.8
2015-Feb-18 18:29N 40°57' E 028°54'0 0.0
2015-Feb-18 17:33N 40°57' E 028°54'0 0.5
2015-Feb-18 16:33N 40°56' E 028°54'2 2.2
2015-Feb-18 15:33N 40°57' E 028°57'7 6.7
2015-Feb-18 14:32N 40°51' E 028°53'3 3.4
2015-Feb-18 13:31N 40°50' E 028°48'260 7.2
2015-Feb-17 01:25N 37°57' E 024°37'22 7.6
2015-Feb-16 22:32N 37°43' E 024°16'10 8.2
2015-Feb-16 21:20N 37°37' E 024°06'7 9.6
2015-Feb-16 20:33N 37°37' E 023°57'1010.3
2015-Feb-16 19:33N 37°39' E 023°44'1110.9
2015-Feb-16 18:33N 37°49' E 023°37'6 5.8
2015-Feb-16 17:33N 37°52' E 023°31'0 0.0
2015-Feb-16 16:33N 37°52' E 023°31'0 0.0
2015-Feb-16 15:33N 37°52' E 023°31'0 0.0
2015-Feb-16 14:33N 37°52' E 023°31'0 0.0
2015-Feb-16 13:33N 37°52' E 023°31'0 0.0
2015-Feb-16 12:33N 37°52' E 023°31'0 0.0
2015-Feb-16 11:33N 37°52' E 023°31'0 0.0
2015-Feb-16 10:33N 37°52' E 023°31'0 0.0
2015-Feb-16 09:33N 37°52' E 023°31'0 0.0
2015-Feb-16 08:33N 37°52' E 023°31'0 0.0
2015-Feb-16 07:33N 37°52' E 023°31'2 1.6
2015-Feb-16 06:33N 37°51' E 023°33'9 8.7
2015-Feb-16 05:33N 37°47' E 023°42'9 8.8
2015-Feb-16 04:33N 37°38' E 023°44'9 9.0
2015-Feb-16 03:33N 37°29' E 023°41'20 9.5
2015-Feb-16 01:26N 37°11' E 023°32'9 9.7
2015-Feb-16 00:28N 37°02' E 023°27'  
Track history (hours):
 
Tides and Currents Weather Stations Pressure Air Temp Water Temp Dewpoint Dewpoint Depression Visibility Wind Speed Wind Dir Waves Ship Positions

Star Vega

Last reported at 2015-Feb-21 05:11 UTC. Time now 2015-Feb-26 23:19 UTC.
Position N 46°16' E 030°44'.

Length 189 m; draft 6.3 m.

Type: Cargo ship. MMSI: 354143000.

Date/timePositionNaut miles runAvg speedWind from/ knotsBaromVisibWave heightAir tempDewpointWater temp
2015-Feb-21 05:11N 46°16' E 030°44'11 6.5
2015-Feb-21 03:28N 46°14' E 031°00'30510.5
2015-Feb-19 22:33N 41°20' E 029°13'22 9.3
2015-Feb-19 20:13N 41°00' E 028°60'5 6.7
2015-Feb-19 19:32N 40°56' E 028°59'9 9.4
2015-Feb-19 18:32N 40°47' E 029°03'6 6.3
2015-Feb-19 17:33N 40°42' E 028°58'1110.7
2015-Feb-19 16:29N 40°42' E 028°43'14 2.6
2015-Feb-19 11:05N 40°41' E 028°25'4 2.8
2015-Feb-19 09:33N 40°44' E 028°28'10 9.9
2015-Feb-19 08:32N 40°39' E 028°39'6 6.3
2015-Feb-19 07:33N 40°34' E 028°45'4 3.5
2015-Feb-19 06:32N 40°37' E 028°43'3 3.1
2015-Feb-19 05:28N 40°35' E 028°40'5 1.6
2015-Feb-19 02:18N 40°31' E 028°38'3 3.3
2015-Feb-19 01:30N 40°33' E 028°39'3 3.5
2015-Feb-19 00:31N 40°36' E 028°40'4 3.7
2015-Feb-18 23:33N 40°40' E 028°43'4 3.5
2015-Feb-18 22:32N 40°43' E 028°45'3 3.3
2015-Feb-18 21:33N 40°45' E 028°47'4 3.5
2015-Feb-18 20:32N 40°48' E 028°50'4 4.3
2015-Feb-18 19:32N 40°51' E 028°55'6 5.8
2015-Feb-18 18:29N 40°57' E 028°54'0 0.0
2015-Feb-18 17:33N 40°57' E 028°54'0 0.5
2015-Feb-18 16:33N 40°56' E 028°54'2 2.2
2015-Feb-18 15:33N 40°57' E 028°57'7 6.7
2015-Feb-18 14:32N 40°51' E 028°53'3 3.4
2015-Feb-18 13:31N 40°50' E 028°48'260 7.2
2015-Feb-17 01:25N 37°57' E 024°37'22 7.6
2015-Feb-16 22:32N 37°43' E 024°16'10 8.2
2015-Feb-16 21:20N 37°37' E 024°06'7 9.6
2015-Feb-16 20:33N 37°37' E 023°57'1010.3
2015-Feb-16 19:33N 37°39' E 023°44'1110.9
2015-Feb-16 18:33N 37°49' E 023°37'6 5.8
2015-Feb-16 17:33N 37°52' E 023°31'0 0.0
2015-Feb-16 16:33N 37°52' E 023°31'0 0.0
2015-Feb-16 15:33N 37°52' E 023°31'0 0.0
2015-Feb-16 14:33N 37°52' E 023°31'0 0.0
2015-Feb-16 13:33N 37°52' E 023°31'0 0.0
2015-Feb-16 12:33N 37°52' E 023°31'0 0.0
2015-Feb-16 11:33N 37°52' E 023°31'0 0.0
2015-Feb-16 10:33N 37°52' E 023°31'0 0.0
2015-Feb-16 09:33N 37°52' E 023°31'0 0.0
2015-Feb-16 08:33N 37°52' E 023°31'0 0.0
2015-Feb-16 07:33N 37°52' E 023°31'2 1.6
2015-Feb-16 06:33N 37°51' E 023°33'9 8.7
2015-Feb-16 05:33N 37°47' E 023°42'9 8.8
2015-Feb-16 04:33N 37°38' E 023°44'9 9.0
2015-Feb-16 03:33N 37°29' E 023°41'20 9.5
2015-Feb-16 01:26N 37°11' E 023°32'9 9.7
2015-Feb-16 00:28N 37°02' E 023°27'  

Dump ship's entire track history